createdAt,value
2022-10-17T00:01:41.429Z,10.07
2022-10-17T00:04:10.430Z,10.09
2022-10-17T00:06:40.480Z,10.11
2022-10-17T00:09:10.276Z,10.12
2022-10-17T00:11:39.227Z,10.20
2022-10-17T00:14:09.526Z,10.19
2022-10-17T00:16:38.793Z,10.20
2022-10-17T00:19:08.667Z,10.20
2022-10-17T00:21:37.660Z,10.24
2022-10-17T00:24:07.259Z,10.27
2022-10-17T00:26:36.262Z,10.27
2022-10-17T00:29:05.293Z,10.23
2022-10-17T00:31:35.797Z,10.17
2022-10-17T00:34:04.747Z,10.17
2022-10-17T00:36:34.854Z,10.21
2022-10-17T00:39:03.919Z,10.18
2022-10-17T00:41:34.847Z,10.23
2022-10-17T00:44:28.892Z,10.24
2022-10-17T00:47:01.796Z,10.25
2022-10-17T00:49:34.033Z,10.28
2022-10-17T00:52:05.844Z,10.30
2022-10-17T00:54:38.490Z,10.27
2022-10-17T00:57:08.023Z,10.29
2022-10-17T00:59:39.005Z,10.27
2022-10-17T01:02:13.312Z,10.27
2022-10-17T01:04:45.823Z,10.23
2022-10-17T01:07:15.111Z,10.24
2022-10-17T01:09:46.297Z,10.26
2022-10-17T01:12:21.618Z,10.26
2022-10-17T01:15:02.490Z,10.33
2022-10-17T01:17:40.583Z,10.32
2022-10-17T01:20:35.153Z,10.34
2022-10-17T01:23:19.932Z,10.36
2022-10-17T01:25:58.261Z,10.34
2022-10-17T01:28:49.800Z,10.32
2022-10-17T01:31:23.500Z,10.39
2022-10-17T01:34:00.257Z,10.42
2022-10-17T01:36:40.477Z,10.42
2022-10-17T01:39:17.947Z,10.42
2022-10-17T01:41:54.482Z,10.46
2022-10-17T01:44:29.090Z,10.50
2022-10-17T01:47:04.719Z,10.54
2022-10-17T01:49:36.558Z,10.57
2022-10-17T01:52:10.782Z,10.59
2022-10-17T01:54:44.379Z,10.62
2022-10-17T01:57:20.743Z,10.68
2022-10-17T01:59:54.005Z,10.70
2022-10-17T02:02:26.244Z,10.65
2022-10-17T02:04:58.184Z,10.61
2022-10-17T02:07:27.540Z,10.63
2022-10-17T02:09:56.603Z,10.66
2022-10-17T02:12:50.771Z,10.71
2022-10-17T02:15:38.714Z,10.79
2022-10-17T02:18:20.479Z,10.80
2022-10-17T02:20:55.520Z,10.81
2022-10-17T02:23:33.628Z,10.85
2022-10-17T02:26:11.099Z,10.90
2022-10-17T02:28:46.310Z,10.90
2022-10-17T02:31:18.806Z,10.96
2022-10-17T02:33:54.006Z,10.99
2022-10-17T02:36:27.436Z,11.03
2022-10-17T02:38:58.019Z,11.04
2022-10-17T02:44:01.582Z,11.11
2022-10-17T02:46:33.845Z,11.11
2022-10-17T02:49:08.733Z,11.16
2022-10-17T02:51:44.363Z,11.17
2022-10-17T02:54:21.525Z,11.21
2022-10-17T02:56:55.973Z,11.22
2022-10-17T02:59:29.673Z,11.23
2022-10-17T03:01:58.685Z,11.29
2022-10-17T03:04:28.999Z,11.32
2022-10-17T03:06:58.073Z,11.38
2022-10-17T03:09:27.666Z,11.51
2022-10-17T03:11:56.746Z,11.51
2022-10-17T03:14:26.050Z,11.55
2022-10-17T03:16:55.007Z,11.58
2022-10-17T03:19:24.259Z,11.61
2022-10-17T03:21:56.487Z,11.63
2022-10-17T03:24:25.436Z,11.62
2022-10-17T03:26:54.416Z,11.70
2022-10-17T03:29:23.685Z,11.72
2022-10-17T03:31:52.844Z,11.71
2022-10-17T03:34:22.163Z,11.74
2022-10-17T03:36:51.313Z,11.69
2022-10-17T03:39:22.365Z,11.67
2022-10-17T03:41:51.320Z,11.66
2022-10-17T03:44:20.461Z,11.64
2022-10-17T03:46:49.882Z,11.53
2022-10-17T03:49:18.881Z,11.50
2022-10-17T03:51:47.877Z,11.50
2022-10-17T03:54:19.051Z,11.53
2022-10-17T03:56:49.467Z,11.42
2022-10-17T03:59:20.439Z,11.38
2022-10-17T04:01:58.107Z,11.35
2022-10-17T04:04:27.335Z,11.36
2022-10-17T04:06:56.382Z,11.30
2022-10-17T04:09:25.362Z,11.27
2022-10-17T04:12:01.125Z,11.21
2022-10-17T04:14:30.085Z,11.17
2022-10-17T04:16:59.432Z,11.17
2022-10-17T04:19:29.592Z,11.20
2022-10-17T04:21:58.635Z,11.19
2022-10-17T04:24:29.538Z,11.17
2022-10-17T04:27:08.342Z,11.19
2022-10-17T04:29:40.914Z,11.12
2022-10-17T04:32:28.015Z,11.15
2022-10-17T04:35:01.961Z,11.08
2022-10-17T04:37:31.236Z,11.00
2022-10-17T04:40:02.602Z,10.93
2022-10-17T04:42:36.935Z,10.90
2022-10-17T04:45:07.298Z,10.87
2022-10-17T04:47:37.700Z,10.89
2022-10-17T04:50:07.530Z,10.86
2022-10-17T04:52:38.383Z,10.86
2022-10-17T04:55:08.249Z,10.84
2022-10-17T04:57:39.388Z,10.78
2022-10-17T05:00:22.612Z,10.84
2022-10-17T05:03:01.104Z,10.81
2022-10-17T05:05:31.387Z,10.87
2022-10-17T05:08:00.600Z,10.83
2022-10-17T05:10:37.032Z,10.83
2022-10-17T05:13:08.591Z,10.77
2022-10-17T05:15:39.049Z,10.76
2022-10-17T05:18:08.426Z,10.71
2022-10-17T05:20:38.348Z,10.70
2022-10-17T05:23:08.672Z,10.63
2022-10-17T05:25:42.109Z,10.57
2022-10-17T05:28:12.407Z,10.55
2022-10-17T05:30:43.366Z,10.59
2022-10-17T05:33:12.537Z,10.63
2022-10-17T05:35:42.391Z,10.55
2022-10-17T05:38:12.047Z,10.56
2022-10-17T05:40:44.093Z,10.52
2022-10-17T05:43:14.763Z,10.52
2022-10-17T05:45:44.656Z,10.46
2022-10-17T05:48:19.559Z,10.46
2022-10-17T05:50:48.793Z,10.50
2022-10-17T05:53:19.230Z,10.46
2022-10-17T05:55:57.872Z,10.65
2022-10-17T06:01:29.370Z,10.66
2022-10-17T06:03:58.402Z,10.81
2022-10-17T06:06:27.874Z,10.91
2022-10-17T06:08:57.582Z,10.86
2022-10-17T06:11:32.486Z,10.86
2022-10-17T06:14:03.589Z,10.93
2022-10-17T06:16:32.840Z,10.94
2022-10-17T06:19:01.897Z,11.00
2022-10-17T06:21:34.633Z,11.08
2022-10-17T06:24:09.722Z,11.26
2022-10-17T06:26:40.768Z,11.27
2022-10-17T06:29:12.530Z,11.41
2022-10-17T06:31:48.658Z,11.48
2022-10-17T06:34:17.947Z,11.57
2022-10-17T06:36:48.746Z,11.63
2022-10-17T06:39:20.225Z,11.64
2022-10-17T06:41:59.613Z,11.66
2022-10-17T06:44:47.469Z,11.93
2022-10-17T06:47:39.858Z,11.95
2022-10-17T06:50:29.132Z,11.97
2022-10-17T06:53:13.518Z,12.13
2022-10-17T06:55:53.933Z,12.22
2022-10-17T06:58:43.209Z,12.38
2022-10-17T07:01:29.887Z,12.43
2022-10-17T07:04:01.004Z,12.53
2022-10-17T07:06:31.981Z,12.54
2022-10-17T07:09:07.464Z,12.60
2022-10-17T07:11:40.144Z,12.75
2022-10-17T07:14:09.359Z,12.85
2022-10-17T07:16:39.847Z,12.99
2022-10-17T07:19:21.407Z,13.00
2022-10-17T07:21:51.855Z,13.08
2022-10-17T07:24:20.996Z,13.17
2022-10-17T07:26:55.398Z,13.28
2022-10-17T07:29:24.490Z,13.36
2022-10-17T07:32:03.996Z,13.53
2022-10-17T07:34:34.126Z,13.61
2022-10-17T07:37:03.211Z,13.76
2022-10-17T07:39:32.231Z,13.84
2022-10-17T07:42:01.211Z,13.99
2022-10-17T07:44:31.269Z,14.10
2022-10-17T07:47:00.232Z,14.12
2022-10-17T07:49:31.041Z,14.21
2022-10-17T07:52:00.038Z,14.23
2022-10-17T07:54:29.034Z,14.23
2022-10-17T07:56:57.991Z,14.31
2022-10-17T07:59:26.999Z,14.45
2022-10-17T08:01:57.067Z,14.58
2022-10-17T08:04:26.104Z,14.76
2022-10-17T08:07:11.016Z,14.98
2022-10-17T08:09:45.526Z,15.26
2022-10-17T08:12:15.473Z,15.37
2022-10-17T08:14:44.749Z,15.35
2022-10-17T08:17:13.855Z,15.47
2022-10-17T08:19:42.969Z,15.47
2022-10-17T08:22:13.295Z,15.62
2022-10-17T08:24:42.760Z,15.62
2022-10-17T08:27:13.456Z,15.73
2022-10-17T08:29:42.749Z,15.79
2022-10-17T08:32:11.726Z,15.89
2022-10-17T08:34:40.702Z,16.02
2022-10-17T08:39:45.428Z,16.29
2022-10-17T08:42:35.685Z,16.30
2022-10-17T08:45:14.861Z,16.58
2022-10-17T08:47:46.439Z,16.72
2022-10-17T08:50:23.270Z,16.61
2022-10-17T08:52:55.594Z,16.75
2022-10-17T08:55:38.847Z,16.71
2022-10-17T08:58:15.913Z,16.82
2022-10-17T09:00:51.316Z,16.74
2022-10-17T09:03:43.103Z,17.07
2022-10-17T09:06:20.545Z,17.43
2022-10-17T09:08:59.326Z,17.29
2022-10-17T09:11:44.175Z,17.27
2022-10-17T09:14:27.403Z,17.09
2022-10-17T09:17:08.974Z,17.02
2022-10-17T09:19:41.428Z,17.21
2022-10-17T09:22:15.336Z,17.11
2022-10-17T09:24:47.484Z,17.11
2022-10-17T09:27:25.052Z,17.40
2022-10-17T09:30:04.208Z,17.55
2022-10-17T09:32:33.981Z,17.85
2022-10-17T09:35:03.180Z,17.93
2022-10-17T09:37:33.814Z,17.76
2022-10-17T09:40:02.911Z,17.81
2022-10-17T09:42:36.233Z,17.56
2022-10-17T09:45:19.585Z,17.65
2022-10-17T09:47:58.519Z,17.68
2022-10-17T09:50:32.234Z,17.76
2022-10-17T09:53:08.548Z,17.81
2022-10-17T09:55:42.582Z,18.12
2022-10-17T09:58:13.231Z,18.14
2022-10-17T10:00:44.392Z,18.26
2022-10-17T10:03:17.747Z,18.31
2022-10-17T10:06:02.156Z,18.42
2022-10-17T10:08:33.099Z,18.25
2022-10-17T10:11:04.906Z,18.37
2022-10-17T10:13:36.414Z,18.44
2022-10-17T10:16:18.453Z,18.43
2022-10-17T10:18:50.152Z,18.42
2022-10-17T10:21:22.055Z,18.49
2022-10-17T10:24:13.207Z,18.61
2022-10-17T10:26:44.743Z,18.52
2022-10-17T10:29:30.727Z,18.56
2022-10-17T10:32:10.078Z,18.50
2022-10-17T10:34:45.357Z,18.65
2022-10-17T10:37:21.293Z,18.81
2022-10-17T10:39:53.007Z,18.72
2022-10-17T10:42:27.249Z,19.07
2022-10-17T10:45:00.872Z,19.33
2022-10-17T10:47:32.612Z,19.33
2022-10-17T10:50:26.409Z,19.49
2022-10-17T10:53:07.256Z,19.47
2022-10-17T10:55:41.121Z,19.44
2022-10-17T10:58:24.845Z,19.34
2022-10-17T11:00:56.493Z,19.23
2022-10-17T11:03:33.518Z,19.25
2022-10-17T11:06:07.262Z,19.18
2022-10-17T11:08:43.868Z,19.19
2022-10-17T11:11:19.493Z,19.13
2022-10-17T11:13:54.531Z,19.07
2022-10-17T11:16:33.905Z,19.11
2022-10-17T11:19:13.578Z,19.09
2022-10-17T11:21:47.874Z,19.15
2022-10-17T11:24:24.810Z,19.19
2022-10-17T11:27:00.056Z,19.13
2022-10-17T11:29:32.103Z,19.18
2022-10-17T11:32:07.837Z,19.22
2022-10-17T11:34:41.535Z,19.38
2022-10-17T11:37:17.255Z,19.54
2022-10-17T11:39:52.469Z,19.54
2022-10-17T11:42:27.340Z,19.64
2022-10-17T11:45:01.350Z,19.73
2022-10-17T11:47:39.379Z,19.67
2022-10-17T11:53:17.050Z,19.74
2022-10-17T11:55:47.263Z,19.72
2022-10-17T11:58:30.816Z,19.77
2022-10-17T12:01:08.482Z,19.70
2022-10-17T12:03:52.951Z,19.56
2022-10-17T12:06:33.981Z,19.35
2022-10-17T12:09:12.230Z,19.23
2022-10-17T12:11:53.875Z,18.99
2022-10-17T12:14:47.355Z,18.73
2022-10-17T12:17:34.064Z,18.70
2022-10-17T12:20:39.531Z,18.29
2022-10-17T12:23:29.940Z,17.61
2022-10-17T12:26:04.524Z,17.40
2022-10-17T12:28:41.886Z,17.29
2022-10-17T12:31:23.195Z,17.21
2022-10-17T12:33:55.249Z,17.14
2022-10-17T12:36:49.978Z,17.09
2022-10-17T12:39:54.831Z,17.03
2022-10-17T12:42:45.712Z,17.07
2022-10-17T12:45:47.050Z,17.08
2022-10-17T12:48:49.480Z,17.08
2022-10-17T12:51:35.187Z,17.11
2022-10-17T12:54:13.138Z,17.12
2022-10-17T12:56:45.062Z,17.12
2022-10-17T12:59:21.012Z,17.09
2022-10-17T13:01:53.856Z,17.04
2022-10-17T13:04:23.736Z,16.99
2022-10-17T13:06:55.072Z,16.96
2022-10-17T13:09:29.317Z,16.93
2022-10-17T13:12:00.861Z,16.90
2022-10-17T13:14:30.893Z,16.89
2022-10-17T13:17:01.825Z,16.84
2022-10-17T13:19:40.430Z,16.83
2022-10-17T13:22:21.960Z,16.79
2022-10-17T13:24:53.959Z,16.74
2022-10-17T13:27:29.403Z,16.71
2022-10-17T13:30:00.120Z,16.61
2022-10-17T13:32:37.876Z,16.55
2022-10-17T13:35:09.124Z,16.52
2022-10-17T13:37:40.631Z,16.51
2022-10-17T13:40:40.938Z,16.54
2022-10-17T13:43:16.152Z,16.52
2022-10-17T13:45:50.121Z,16.52
2022-10-17T13:48:22.804Z,16.48
2022-10-17T13:50:55.710Z,16.48
2022-10-17T13:53:31.034Z,16.47
2022-10-17T13:56:27.448Z,16.46
2022-10-17T13:58:56.382Z,16.45
2022-10-17T14:01:27.119Z,16.45
2022-10-17T14:04:08.366Z,16.43
2022-10-17T14:06:49.464Z,16.42
2022-10-17T14:09:23.366Z,16.39
2022-10-17T14:12:02.827Z,16.41
2022-10-17T14:14:51.759Z,16.38
2022-10-17T14:17:26.230Z,16.38
2022-10-17T14:20:14.132Z,16.41
2022-10-17T14:22:54.392Z,16.39
2022-10-17T14:25:35.792Z,16.42
2022-10-17T14:28:15.844Z,16.41
2022-10-17T14:31:01.907Z,16.44
2022-10-17T14:33:32.538Z,16.45
2022-10-17T14:36:05.276Z,16.45
2022-10-17T14:38:35.888Z,16.45
2022-10-17T14:41:40.850Z,16.45
2022-10-17T14:44:03.339Z,16.45
2022-10-17T14:46:33.139Z,16.44
2022-10-17T14:49:07.012Z,16.44
2022-10-17T14:51:50.195Z,16.44
2022-10-17T14:54:30.191Z,16.45
2022-10-17T14:56:59.167Z,16.46
2022-10-17T14:59:52.688Z,16.44
2022-10-17T15:02:18.818Z,16.47
2022-10-17T15:04:47.803Z,16.44
2022-10-17T15:07:17.925Z,16.44
2022-10-17T15:09:50.249Z,16.44
2022-10-17T15:12:22.699Z,16.42
2022-10-17T15:14:53.873Z,16.43
2022-10-17T15:17:27.548Z,16.46
2022-10-17T15:19:57.336Z,16.48
2022-10-17T15:22:26.499Z,16.47
2022-10-17T15:24:55.670Z,16.46
2022-10-17T15:27:26.322Z,16.49
2022-10-17T15:29:56.623Z,16.48
2022-10-17T15:32:25.820Z,16.46
2022-10-17T15:34:54.807Z,16.49
2022-10-17T15:37:26.182Z,16.48
2022-10-17T15:39:56.430Z,16.47
2022-10-17T15:42:29.708Z,16.48
2022-10-17T15:45:00.378Z,16.47
2022-10-17T15:47:33.306Z,16.45
2022-10-17T15:50:03.549Z,16.45
2022-10-17T15:52:32.511Z,16.44
2022-10-17T15:55:04.413Z,16.45
2022-10-17T15:57:38.044Z,16.44
2022-10-17T16:00:16.774Z,16.40
2022-10-17T16:02:46.444Z,16.42
2022-10-17T16:05:19.000Z,16.36
2022-10-17T16:07:48.286Z,16.38
2022-10-17T16:10:18.090Z,16.38
2022-10-17T16:12:49.752Z,16.36
2022-10-17T16:15:23.222Z,16.34
2022-10-17T16:17:53.449Z,16.38
2022-10-17T16:20:24.196Z,16.35
2022-10-17T16:22:59.542Z,16.33
2022-10-17T16:25:30.577Z,16.33
2022-10-17T16:28:01.152Z,16.29
2022-10-17T16:30:33.381Z,16.25
2022-10-17T16:33:02.307Z,16.27
2022-10-17T16:35:36.499Z,16.25
2022-10-17T16:38:07.358Z,16.23
2022-10-17T16:40:38.771Z,16.23
2022-10-17T16:43:07.758Z,16.21
2022-10-17T16:45:38.057Z,16.21
2022-10-17T16:48:10.132Z,16.17
2022-10-17T16:50:41.061Z,16.19
2022-10-17T16:53:10.048Z,16.17
2022-10-17T16:55:39.064Z,16.17
2022-10-17T16:58:08.044Z,16.15
2022-10-17T17:00:40.543Z,16.13
2022-10-17T17:03:09.524Z,16.10
2022-10-17T17:05:38.501Z,16.10
2022-10-17T17:08:10.398Z,16.07
2022-10-17T17:10:46.342Z,16.10
2022-10-17T17:13:15.305Z,16.06
2022-10-17T17:18:19.633Z,16.07
2022-10-17T17:20:48.823Z,16.06
2022-10-17T17:23:17.786Z,16.07
2022-10-17T17:25:46.784Z,16.04
2022-10-17T17:28:15.853Z,16.06
2022-10-17T17:30:46.175Z,16.03
2022-10-17T17:33:15.479Z,16.02
2022-10-17T17:35:44.504Z,16.02
2022-10-17T17:38:13.449Z,16.00
2022-10-17T17:40:50.509Z,15.96
2022-10-17T17:43:20.681Z,15.96
2022-10-17T17:45:51.211Z,15.95
2022-10-17T17:48:20.724Z,15.92
2022-10-17T17:50:50.033Z,15.89
2022-10-17T17:53:19.391Z,15.91
2022-10-17T17:55:48.369Z,15.91
2022-10-17T17:58:17.317Z,15.90
2022-10-17T18:00:46.407Z,15.88
2022-10-17T18:03:16.880Z,15.89
2022-10-17T18:05:45.954Z,15.88
2022-10-17T18:08:14.946Z,15.87
2022-10-17T18:10:49.411Z,15.86
2022-10-17T18:13:18.437Z,15.85
2022-10-17T18:15:51.583Z,15.84
2022-10-17T18:18:22.489Z,15.85
2022-10-17T18:20:51.753Z,15.84
2022-10-17T18:23:21.123Z,15.84
2022-10-17T18:25:56.756Z,15.81
2022-10-17T18:28:26.224Z,15.82
2022-10-17T18:30:57.961Z,15.81
2022-10-17T18:33:28.346Z,15.80
2022-10-17T18:35:58.405Z,15.77
2022-10-17T18:38:27.438Z,15.78
2022-10-17T18:41:04.815Z,15.72
2022-10-17T18:43:35.419Z,15.67
2022-10-17T18:46:10.854Z,15.64
2022-10-17T18:48:45.807Z,15.61
2022-10-17T18:51:16.473Z,15.62
2022-10-17T18:53:47.105Z,15.59
2022-10-17T18:56:16.520Z,15.59
2022-10-17T18:58:45.886Z,15.57
2022-10-17T19:01:17.708Z,15.52
2022-10-17T19:03:49.734Z,15.45
2022-10-17T19:06:20.524Z,15.41
2022-10-17T19:08:49.745Z,15.34
2022-10-17T19:11:20.287Z,15.31
2022-10-17T19:13:50.116Z,15.18
2022-10-17T19:16:21.289Z,15.08
2022-10-17T19:18:56.890Z,15.00
2022-10-17T19:21:26.257Z,14.90
2022-10-17T19:23:56.954Z,14.84
2022-10-17T19:26:27.341Z,14.85
2022-10-17T19:28:57.045Z,14.81
2022-10-17T19:31:27.561Z,14.80
2022-10-17T19:33:58.654Z,14.76
2022-10-17T19:36:32.508Z,14.72
2022-10-17T19:39:09.486Z,14.64
2022-10-17T19:41:38.669Z,14.61
2022-10-17T19:44:07.764Z,14.58
2022-10-17T19:46:37.213Z,14.54
2022-10-17T19:49:08.061Z,14.50
2022-10-17T19:51:39.599Z,14.45
2022-10-17T19:54:15.990Z,14.43
2022-10-17T19:56:48.101Z,14.39
2022-10-17T19:59:18.157Z,14.36
2022-10-17T20:01:47.215Z,14.31
2022-10-17T20:04:17.554Z,14.28
2022-10-17T20:06:46.619Z,14.27
2022-10-17T20:09:17.211Z,14.24
2022-10-17T20:11:46.773Z,14.21
2022-10-17T20:14:15.760Z,14.18
2022-10-17T20:16:49.980Z,14.12
2022-10-17T20:19:20.949Z,14.11
2022-10-17T20:21:50.089Z,14.09
2022-10-17T20:24:22.376Z,14.04
2022-10-17T20:26:51.639Z,14.00
2022-10-17T20:29:24.147Z,13.98
2022-10-17T20:31:53.114Z,13.96
2022-10-17T20:34:23.433Z,13.94
2022-10-17T20:36:52.486Z,13.95
2022-10-17T20:39:22.288Z,13.92
2022-10-17T20:41:51.326Z,13.87
2022-10-17T20:44:20.681Z,13.85
2022-10-17T20:47:01.126Z,13.84
2022-10-17T20:49:33.894Z,13.82
2022-10-17T20:52:03.197Z,13.78
2022-10-17T20:54:32.414Z,13.82
2022-10-17T20:57:04.100Z,13.79
2022-10-17T20:59:35.269Z,13.83
2022-10-17T21:02:05.942Z,13.79
2022-10-17T21:04:52.004Z,13.82
2022-10-17T21:07:22.166Z,13.81
2022-10-17T21:09:51.173Z,13.79
2022-10-17T21:12:31.004Z,13.80
2022-10-17T21:15:06.671Z,13.83
2022-10-17T21:17:35.861Z,13.82
2022-10-17T21:20:08.777Z,13.87
2022-10-17T21:22:37.796Z,13.77
2022-10-17T21:25:07.499Z,13.82
2022-10-17T21:27:36.634Z,13.81
2022-10-17T21:32:51.151Z,13.78
2022-10-17T21:35:22.251Z,13.79
2022-10-17T21:37:51.993Z,13.78
2022-10-17T21:40:20.934Z,13.78
2022-10-17T21:42:49.969Z,13.75
2022-10-17T21:45:25.329Z,13.73
2022-10-17T21:48:12.122Z,13.72
2022-10-17T21:50:43.322Z,13.66
2022-10-17T21:53:12.491Z,13.65
2022-10-17T21:55:41.526Z,13.66
2022-10-17T21:58:10.514Z,13.68
2022-10-17T22:00:39.452Z,13.68
2022-10-17T22:03:09.546Z,13.64
2022-10-17T22:05:38.489Z,13.67
2022-10-17T22:08:08.987Z,13.61
2022-10-17T22:10:39.283Z,13.62
2022-10-17T22:13:08.533Z,13.65
2022-10-17T22:15:37.668Z,13.58
2022-10-17T22:18:06.733Z,13.58
2022-10-17T22:20:36.305Z,13.54
2022-10-17T22:23:05.493Z,13.54
2022-10-17T22:25:35.941Z,13.52
2022-10-17T22:28:05.151Z,13.65
2022-10-17T22:30:34.126Z,13.64
2022-10-17T22:33:03.164Z,13.64
2022-10-17T22:35:32.188Z,13.64
2022-10-17T22:38:01.252Z,13.60
2022-10-17T22:40:30.403Z,13.66
2022-10-17T22:43:00.821Z,13.71
2022-10-17T22:45:29.831Z,13.67
2022-10-17T22:47:58.774Z,13.71
2022-10-17T22:50:27.709Z,13.72
2022-10-17T22:52:56.664Z,13.71
2022-10-17T22:55:25.968Z,13.72
2022-10-17T22:57:54.933Z,13.72
2022-10-17T23:00:25.312Z,13.76
2022-10-17T23:02:55.091Z,13.76
2022-10-17T23:05:24.065Z,13.77
2022-10-17T23:07:53.066Z,13.78
2022-10-17T23:10:22.009Z,13.79
2022-10-17T23:12:50.950Z,13.79
2022-10-17T23:15:19.909Z,13.77
2022-10-17T23:17:50.145Z,13.75
2022-10-17T23:20:19.179Z,13.73
2022-10-17T23:22:48.184Z,13.73
2022-10-17T23:25:17.333Z,13.72
2022-10-17T23:27:46.343Z,13.72
2022-10-17T23:30:15.574Z,13.65
2022-10-17T23:32:44.897Z,13.66
2022-10-17T23:35:15.318Z,13.69
2022-10-17T23:37:44.548Z,13.66
2022-10-17T23:40:14.321Z,13.68
2022-10-17T23:42:43.369Z,13.64
2022-10-17T23:45:12.764Z,13.60
2022-10-17T23:47:41.753Z,13.57
2022-10-17T23:50:10.881Z,13.63
2022-10-17T23:52:41.150Z,13.57
2022-10-17T23:55:11.095Z,13.50
2022-10-17T23:57:40.112Z,13.51
